createdAt,value
2019-03-12T00:01:05.129Z,6.00
2019-03-12T00:03:34.505Z,6.10
2019-03-12T00:06:03.624Z,6.00
2019-03-12T00:08:32.777Z,6.00
2019-03-12T00:11:02.157Z,5.90
2019-03-12T00:13:32.261Z,5.90
2019-03-12T00:16:01.547Z,6.10
2019-03-12T00:18:30.728Z,6.10
2019-03-12T00:20:59.547Z,6.00
2019-03-12T00:23:28.450Z,5.90
2019-03-12T00:25:57.916Z,5.90
2019-03-12T00:28:28.464Z,5.80
2019-03-12T00:30:57.734Z,5.80
2019-03-12T00:33:29.165Z,5.90
2019-03-12T00:35:58.269Z,5.90
2019-03-12T00:38:27.520Z,6.00
2019-03-12T00:41:00.811Z,5.80
2019-03-12T00:43:30.583Z,5.80
2019-03-12T00:46:00.438Z,5.90
2019-03-12T00:48:30.078Z,6.00
2019-03-12T00:51:01.811Z,6.00
2019-03-12T00:53:31.661Z,6.10
2019-03-12T00:56:01.591Z,6.20
2019-03-12T00:58:31.022Z,6.20
2019-03-12T01:01:00.513Z,6.30
2019-03-12T01:03:29.922Z,6.30
2019-03-12T01:05:59.572Z,6.10
2019-03-12T01:08:28.704Z,6.20
2019-03-12T01:10:58.017Z,6.20
2019-03-12T01:13:28.300Z,6.20
2019-03-12T01:15:58.238Z,6.20
2019-03-12T01:18:28.522Z,6.20
2019-03-12T01:20:57.907Z,6.20
2019-03-12T01:23:27.257Z,6.30
2019-03-12T01:25:58.319Z,6.40
2019-03-12T01:28:28.726Z,6.40
2019-03-12T01:30:58.039Z,6.20
2019-03-12T01:33:28.130Z,6.20
2019-03-12T01:35:57.881Z,6.30
2019-03-12T01:38:27.960Z,6.30
2019-03-12T01:40:58.109Z,6.20
2019-03-12T01:43:27.544Z,6.30
2019-03-12T01:45:59.438Z,6.20
2019-03-12T01:48:29.178Z,6.10
2019-03-12T01:50:58.635Z,6.10
2019-03-12T01:53:28.503Z,6.20
2019-03-12T01:56:01.786Z,6.10
2019-03-12T01:58:32.351Z,6.10
2019-03-12T02:01:01.992Z,6.20
2019-03-12T02:03:31.614Z,6.30
2019-03-12T02:06:01.748Z,6.30
2019-03-12T02:08:31.944Z,6.30
2019-03-12T02:11:01.647Z,6.30
2019-03-12T02:13:31.588Z,6.40
2019-03-12T02:16:00.397Z,6.20
2019-03-12T02:18:30.325Z,6.10
2019-03-12T02:20:59.995Z,5.90
2019-03-12T02:23:30.352Z,6.10
2019-03-12T02:26:00.278Z,6.00
2019-03-12T02:28:29.783Z,6.00
2019-03-12T02:30:59.143Z,6.00
2019-03-12T02:33:28.881Z,6.00
2019-03-12T02:35:58.843Z,6.00
2019-03-12T02:38:28.806Z,6.00
2019-03-12T02:40:58.957Z,6.10
2019-03-12T02:43:28.495Z,6.10
2019-03-12T02:45:58.151Z,6.10
2019-03-12T02:48:27.613Z,6.10
2019-03-12T02:50:57.568Z,6.00
2019-03-12T02:53:26.622Z,6.10
2019-03-12T02:55:56.443Z,6.20
2019-03-12T02:58:29.818Z,6.10
2019-03-12T03:00:58.712Z,6.10
2019-03-12T03:03:31.338Z,6.10
2019-03-12T03:06:11.845Z,6.10
2019-03-12T03:08:44.437Z,6.10
2019-03-12T03:11:13.590Z,6.20
2019-03-12T03:13:43.840Z,6.20
2019-03-12T03:16:16.701Z,6.20
2019-03-12T03:18:46.935Z,6.20
2019-03-12T03:21:18.758Z,6.30
2019-03-12T03:23:48.581Z,6.30
2019-03-12T03:26:18.708Z,6.10
2019-03-12T03:28:49.149Z,6.10
2019-03-12T03:31:28.399Z,6.20
2019-03-12T03:33:58.279Z,6.30
2019-03-12T03:36:29.244Z,6.30
2019-03-12T03:39:02.477Z,6.30
2019-03-12T03:41:34.811Z,6.30
2019-03-12T03:44:03.391Z,6.30
2019-03-12T03:46:33.232Z,6.20
2019-03-12T03:49:03.452Z,6.20
2019-03-12T03:51:32.647Z,6.20
2019-03-12T03:54:02.428Z,6.20
2019-03-12T03:56:32.423Z,6.10
2019-03-12T03:59:01.833Z,6.20
2019-03-12T04:01:30.972Z,6.30
2019-03-12T04:04:01.115Z,6.30
2019-03-12T04:06:33.773Z,6.30
2019-03-12T04:09:01.918Z,6.20
2019-03-12T04:11:34.985Z,6.20
2019-03-12T04:14:04.849Z,6.20
2019-03-12T04:16:34.674Z,6.20
2019-03-12T04:19:04.200Z,6.10
2019-03-12T04:21:33.776Z,6.20
2019-03-12T04:24:03.433Z,6.10
2019-03-12T04:26:33.058Z,6.10
2019-03-12T04:29:03.415Z,6.20
2019-03-12T04:31:33.130Z,6.20
2019-03-12T04:34:22.785Z,6.20
2019-03-12T04:36:53.008Z,6.20
2019-03-12T04:39:22.221Z,6.20
2019-03-12T04:41:51.719Z,6.10
2019-03-12T04:44:20.570Z,6.00
2019-03-12T04:46:52.757Z,6.00
2019-03-12T04:49:21.994Z,6.10
2019-03-12T04:51:51.610Z,6.10
2019-03-12T04:54:21.133Z,6.10
2019-03-12T04:56:50.224Z,6.00
2019-03-12T04:59:19.637Z,6.00
2019-03-12T05:01:49.298Z,6.10
2019-03-12T05:04:18.675Z,5.90
2019-03-12T05:06:47.783Z,5.90
2019-03-12T05:09:16.850Z,5.80
2019-03-12T05:11:45.983Z,5.80
2019-03-12T05:14:27.206Z,5.80
2019-03-12T05:16:58.740Z,5.80
2019-03-12T05:19:28.582Z,5.80
2019-03-12T05:21:57.423Z,5.70
2019-03-12T05:24:26.209Z,5.70
2019-03-12T05:26:54.973Z,5.60
2019-03-12T05:29:23.754Z,5.60
2019-03-12T05:31:52.960Z,5.70
2019-03-12T05:34:23.199Z,5.70
2019-03-12T05:36:52.270Z,5.70
2019-03-12T05:39:21.014Z,5.70
2019-03-12T05:41:50.063Z,5.60
2019-03-12T05:44:18.806Z,5.70
2019-03-12T05:46:47.563Z,5.60
2019-03-12T05:49:16.341Z,5.70
2019-03-12T05:51:45.116Z,5.60
2019-03-12T05:54:14.214Z,5.60
2019-03-12T05:56:43.049Z,5.60
2019-03-12T05:59:11.817Z,5.50
2019-03-12T06:01:40.878Z,5.50
2019-03-12T06:04:09.636Z,5.50
2019-03-12T06:06:38.701Z,5.60
2019-03-12T06:09:07.831Z,5.50
2019-03-12T06:11:36.595Z,5.50
2019-03-12T06:14:05.629Z,5.40
2019-03-12T06:16:34.473Z,5.40
2019-03-12T06:19:03.245Z,5.40
2019-03-12T06:21:32.345Z,5.40
2019-03-12T06:24:01.427Z,5.40
2019-03-12T06:26:30.497Z,5.40
2019-03-12T06:28:59.581Z,5.50
2019-03-12T06:32:05.755Z,5.40
2019-03-12T06:34:53.637Z,5.40
2019-03-12T06:37:31.398Z,5.40
2019-03-12T06:40:22.882Z,5.40
2019-03-12T06:43:00.591Z,5.40
2019-03-12T06:45:36.647Z,5.40
2019-03-12T06:48:23.879Z,5.60
2019-03-12T06:50:59.285Z,5.50
2019-03-12T06:53:41.910Z,5.40
2019-03-12T06:56:28.559Z,5.50
2019-03-12T06:59:16.418Z,5.50
2019-03-12T07:02:04.910Z,5.50
2019-03-12T07:04:41.511Z,5.60
2019-03-12T07:07:29.650Z,5.60
2019-03-12T07:10:23.410Z,5.60
2019-03-12T07:13:17.388Z,5.60
2019-03-12T07:16:08.814Z,5.60
2019-03-12T07:18:59.818Z,5.60
2019-03-12T07:21:44.160Z,5.60
2019-03-12T07:24:19.089Z,5.70
2019-03-12T07:26:53.837Z,5.80
2019-03-12T07:29:47.942Z,5.90
2019-03-12T07:32:22.788Z,5.80
2019-03-12T07:34:59.605Z,5.90
2019-03-12T07:37:43.591Z,5.90
2019-03-12T07:40:37.548Z,5.90
2019-03-12T07:43:15.007Z,6.10
2019-03-12T07:45:49.164Z,5.90
2019-03-12T07:48:41.898Z,6.00
2019-03-12T07:51:36.566Z,5.90
2019-03-12T07:54:18.251Z,6.00
2019-03-12T07:57:00.564Z,6.00
2019-03-12T08:00:04.052Z,6.10
2019-03-12T08:02:54.187Z,6.30
2019-03-12T08:05:45.279Z,6.30
2019-03-12T08:08:51.626Z,6.40
2019-03-12T08:11:27.815Z,6.40
2019-03-12T08:14:18.784Z,6.50
2019-03-12T08:16:58.061Z,6.50
2019-03-12T08:19:37.997Z,6.50
2019-03-12T08:22:28.909Z,6.70
2019-03-12T08:25:16.894Z,6.80
2019-03-12T08:27:53.931Z,6.90
2019-03-12T08:30:42.172Z,7.00
2019-03-12T08:33:27.046Z,7.10
2019-03-12T08:36:21.049Z,7.20
2019-03-12T08:39:11.767Z,7.20
2019-03-12T08:41:46.467Z,7.20
2019-03-12T08:44:41.296Z,7.20
2019-03-12T08:47:20.161Z,7.30
2019-03-12T08:50:10.803Z,7.30
2019-03-12T08:53:01.487Z,7.30
2019-03-12T08:55:44.406Z,7.50
2019-03-12T08:58:24.551Z,7.50
2019-03-12T09:01:16.990Z,7.50
2019-03-12T09:04:16.914Z,7.70
2019-03-12T09:07:05.347Z,7.70
2019-03-12T09:09:54.120Z,7.60
2019-03-12T09:12:38.656Z,7.60
2019-03-12T09:15:25.998Z,7.70
2019-03-12T09:18:12.466Z,7.70
2019-03-12T09:20:58.882Z,7.80
2019-03-12T09:23:43.345Z,7.80
2019-03-12T09:26:31.393Z,8.00
2019-03-12T09:29:19.662Z,8.00
2019-03-12T09:31:57.792Z,7.80
2019-03-12T09:34:43.118Z,8.00
2019-03-12T09:37:39.822Z,8.10
2019-03-12T09:40:23.981Z,8.20
2019-03-12T09:43:06.518Z,8.20
2019-03-12T09:45:44.933Z,8.20
2019-03-12T09:48:23.872Z,8.20
2019-03-12T09:50:58.422Z,8.20
2019-03-12T09:53:34.347Z,8.40
2019-03-12T09:56:12.862Z,8.60
2019-03-12T09:58:48.198Z,8.80
2019-03-12T10:01:27.001Z,8.70
2019-03-12T10:04:01.824Z,8.70
2019-03-12T10:06:56.454Z,8.90
2019-03-12T10:09:48.056Z,9.00
2019-03-12T10:12:26.659Z,9.20
2019-03-12T10:15:12.336Z,9.20
2019-03-12T10:17:50.769Z,9.20
2019-03-12T10:20:35.513Z,9.30
2019-03-12T10:23:23.443Z,9.40
2019-03-12T10:26:14.789Z,9.40
2019-03-12T10:28:53.680Z,9.50
2019-03-12T10:31:56.712Z,9.60
2019-03-12T10:34:44.901Z,9.60
2019-03-12T10:37:33.503Z,9.40
2019-03-12T10:40:27.863Z,9.40
2019-03-12T10:43:08.839Z,9.50
2019-03-12T10:46:05.891Z,9.70
2019-03-12T10:48:35.125Z,9.80
2019-03-12T10:51:04.318Z,9.80
2019-03-12T10:53:33.486Z,9.90
2019-03-12T10:56:02.251Z,10.00
2019-03-12T10:58:31.604Z,10.10
2019-03-12T11:01:01.007Z,10.00
2019-03-12T11:03:29.851Z,9.90
2019-03-12T11:05:58.985Z,9.80
2019-03-12T11:08:27.737Z,9.90
2019-03-12T11:10:56.559Z,10.10
2019-03-12T11:13:25.345Z,10.00
2019-03-12T11:15:54.186Z,9.80
2019-03-12T11:18:23.337Z,9.80
2019-03-12T11:20:52.109Z,9.90
2019-03-12T11:23:21.213Z,9.90
2019-03-12T11:25:50.236Z,9.90
2019-03-12T11:28:19.662Z,9.80
2019-03-12T11:30:48.817Z,9.80
2019-03-12T11:33:17.927Z,9.80
2019-03-12T11:35:47.043Z,9.80
2019-03-12T11:38:16.158Z,9.90
2019-03-12T11:40:45.379Z,10.00
2019-03-12T11:43:14.696Z,10.00
2019-03-12T11:45:44.118Z,10.00
2019-03-12T11:48:13.266Z,9.90
2019-03-12T11:50:42.126Z,10.00
2019-03-12T11:53:11.282Z,10.10
2019-03-12T11:55:40.138Z,10.10
2019-03-12T11:58:09.280Z,10.10
2019-03-12T12:00:44.862Z,10.10
2019-03-12T12:03:13.770Z,10.10
2019-03-12T12:05:42.555Z,9.90
2019-03-12T12:08:11.324Z,9.90
2019-03-12T12:10:40.390Z,10.10
2019-03-12T12:13:09.218Z,10.10
2019-03-12T12:15:38.143Z,10.20
2019-03-12T12:18:07.562Z,10.20
2019-03-12T12:20:36.949Z,10.20
2019-03-12T12:23:05.931Z,10.20
2019-03-12T12:25:34.780Z,10.20
2019-03-12T12:28:03.823Z,10.10
2019-03-12T12:30:32.947Z,10.10
2019-03-12T12:33:01.965Z,10.10
2019-03-12T12:35:31.004Z,10.00
2019-03-12T12:37:59.815Z,9.90
2019-03-12T12:40:28.949Z,10.00
2019-03-12T12:42:58.054Z,10.10
2019-03-12T12:45:27.459Z,10.20
2019-03-12T12:47:56.597Z,10.20
2019-03-12T12:50:25.723Z,10.10
2019-03-12T12:52:54.882Z,10.20
2019-03-12T12:55:24.131Z,10.30
2019-03-12T12:57:52.979Z,10.30
2019-03-12T13:00:22.233Z,10.40
2019-03-12T13:02:51.202Z,10.50
2019-03-12T13:05:20.132Z,10.70
2019-03-12T13:07:48.981Z,10.70
2019-03-12T13:10:22.593Z,10.70
2019-03-12T13:12:52.028Z,10.70
2019-03-12T13:15:21.034Z,10.70
2019-03-12T13:17:49.883Z,10.80
2019-03-12T13:20:18.850Z,10.80
2019-03-12T13:22:48.327Z,10.70
2019-03-12T13:25:17.379Z,10.60
2019-03-12T13:27:46.881Z,10.60
2019-03-12T13:30:17.790Z,10.70
2019-03-12T13:32:46.957Z,10.70
2019-03-12T13:35:16.100Z,10.70
2019-03-12T13:37:45.015Z,10.70
2019-03-12T13:40:15.388Z,10.60
2019-03-12T13:42:44.251Z,10.60
2019-03-12T13:45:14.856Z,10.70
2019-03-12T13:47:45.292Z,10.80
2019-03-12T13:50:14.957Z,10.80
2019-03-12T13:52:43.937Z,10.80
2019-03-12T13:55:13.365Z,10.80
2019-03-12T13:57:42.731Z,10.80
2019-03-12T14:00:14.903Z,10.70
2019-03-12T14:02:44.357Z,10.60
2019-03-12T14:05:13.909Z,10.50
2019-03-12T14:07:42.800Z,10.60
2019-03-12T14:10:14.700Z,10.80
2019-03-12T14:12:43.489Z,10.60
2019-03-12T14:15:15.893Z,10.60
2019-03-12T14:17:45.477Z,10.50
2019-03-12T14:20:42.559Z,10.60
2019-03-12T14:23:13.315Z,10.60
2019-03-12T14:25:42.665Z,10.60
2019-03-12T14:28:11.801Z,10.50
2019-03-12T14:30:40.757Z,10.50
2019-03-12T14:33:09.910Z,10.50
2019-03-12T14:35:50.439Z,10.40
2019-03-12T14:38:09.725Z,10.40
2019-03-12T14:40:38.642Z,10.40
2019-03-12T14:43:07.465Z,10.40
2019-03-12T14:45:39.363Z,10.20
2019-03-12T14:48:29.856Z,10.20
2019-03-12T14:50:58.819Z,10.20
2019-03-12T14:53:27.606Z,10.10
2019-03-12T14:55:56.737Z,10.10
2019-03-12T14:58:25.497Z,10.20
2019-03-12T15:00:54.710Z,10.20
2019-03-12T15:03:23.565Z,10.30
2019-03-12T15:05:52.600Z,10.30
2019-03-12T15:08:21.355Z,10.20
2019-03-12T15:10:50.475Z,10.20
2019-03-12T15:13:19.280Z,10.20
2019-03-12T15:15:48.368Z,10.20
2019-03-12T15:18:17.124Z,10.20
2019-03-12T15:20:45.874Z,10.30
2019-03-12T15:23:15.054Z,10.30
2019-03-12T15:25:43.842Z,10.30
2019-03-12T15:28:12.689Z,10.20
2019-03-12T15:30:41.445Z,10.20
2019-03-12T15:33:10.607Z,10.20
2019-03-12T15:35:39.703Z,10.20
2019-03-12T15:38:08.498Z,10.20
2019-03-12T15:40:37.318Z,10.20
2019-03-12T15:43:06.095Z,10.30
2019-03-12T15:45:34.884Z,10.30
2019-03-12T15:48:03.942Z,10.10
2019-03-12T15:50:34.725Z,9.90
2019-03-12T15:53:03.198Z,9.90
2019-03-12T15:55:31.994Z,10.00
2019-03-12T15:58:01.447Z,10.00
2019-03-12T16:00:30.226Z,10.10
2019-03-12T16:02:58.987Z,10.00
2019-03-12T16:05:28.013Z,10.00
2019-03-12T16:07:57.213Z,9.90
2019-03-12T16:10:26.300Z,9.80
2019-03-12T16:12:55.725Z,9.80
2019-03-12T16:15:24.681Z,9.70
2019-03-12T16:17:53.469Z,9.80
2019-03-12T16:20:22.685Z,9.60
2019-03-12T16:22:51.523Z,9.70
2019-03-12T16:25:20.339Z,9.60
2019-03-12T16:27:49.223Z,9.60
2019-03-12T16:30:18.320Z,9.60
2019-03-12T16:32:47.540Z,9.70
2019-03-12T16:35:16.805Z,9.60
2019-03-12T16:37:45.934Z,9.60
2019-03-12T16:40:15.252Z,9.40
2019-03-12T16:42:44.030Z,9.50
2019-03-12T16:45:13.246Z,9.40
2019-03-12T16:47:42.008Z,9.50
2019-03-12T16:50:11.529Z,9.40
2019-03-12T16:52:40.660Z,9.50
2019-03-12T16:55:09.860Z,9.30
2019-03-12T16:57:38.781Z,9.30
2019-03-12T17:00:09.956Z,9.40
2019-03-12T17:02:39.145Z,9.30
2019-03-12T17:05:08.382Z,9.20
2019-03-12T17:07:37.836Z,9.20
2019-03-12T17:10:08.284Z,9.30
2019-03-12T17:12:37.057Z,9.30
2019-03-12T17:15:07.142Z,9.40
2019-03-12T17:17:35.912Z,9.30
2019-03-12T17:20:05.159Z,9.30
2019-03-12T17:22:35.995Z,9.10
2019-03-12T17:25:05.626Z,9.10
2019-03-12T17:27:34.689Z,9.10
2019-03-12T17:30:04.025Z,9.10
2019-03-12T17:32:33.219Z,9.20
2019-03-12T17:35:02.294Z,9.20
2019-03-12T17:37:31.331Z,9.20
2019-03-12T17:40:00.394Z,9.20
2019-03-12T17:42:29.231Z,9.30
2019-03-12T17:44:58.271Z,9.20
2019-03-12T17:47:27.350Z,9.20
2019-03-12T17:49:56.112Z,9.20
2019-03-12T17:52:24.944Z,9.30
2019-03-12T17:54:54.047Z,9.40
2019-03-12T17:57:23.206Z,9.30
2019-03-12T17:59:52.052Z,9.40
2019-03-12T18:02:20.903Z,9.40
2019-03-12T18:04:49.724Z,9.30
2019-03-12T18:07:18.499Z,9.30
2019-03-12T18:09:47.635Z,9.40
2019-03-12T18:12:16.409Z,9.50
2019-03-12T18:14:45.172Z,9.50
2019-03-12T18:17:13.990Z,9.50
2019-03-12T18:19:43.464Z,9.40
2019-03-12T18:22:12.686Z,9.50
2019-03-12T18:24:41.836Z,9.30
2019-03-12T18:27:10.581Z,9.30
2019-03-12T18:29:39.374Z,9.30
2019-03-12T18:32:08.129Z,9.40
2019-03-12T18:34:36.891Z,9.40
2019-03-12T18:37:05.708Z,9.30
2019-03-12T18:39:34.501Z,9.30
2019-03-12T18:42:03.784Z,9.50
2019-03-12T18:44:32.635Z,9.50
2019-03-12T18:47:01.388Z,9.60
2019-03-12T18:49:30.411Z,9.50
2019-03-12T18:51:59.547Z,9.50
2019-03-12T18:54:28.383Z,9.40
2019-03-12T18:56:57.240Z,9.40
2019-03-12T18:59:26.065Z,9.50
2019-03-12T19:01:55.204Z,9.40
2019-03-12T19:04:23.984Z,9.40
2019-03-12T19:06:52.991Z,9.40
2019-03-12T19:09:21.751Z,9.50
2019-03-12T19:11:50.507Z,9.50
2019-03-12T19:14:19.287Z,9.50
2019-03-12T19:16:48.542Z,9.50
2019-03-12T19:19:17.299Z,9.50
2019-03-12T19:21:46.042Z,9.50
2019-03-12T19:24:15.096Z,9.60
2019-03-12T19:26:44.178Z,9.60
2019-03-12T19:29:12.989Z,9.50
2019-03-12T19:32:04.317Z,9.70
2019-03-12T19:34:35.189Z,9.60
2019-03-12T19:37:04.291Z,9.60
2019-03-12T19:39:33.854Z,9.60
2019-03-12T19:42:02.752Z,9.60
2019-03-12T19:44:31.823Z,9.60
2019-03-12T19:47:04.378Z,9.50
2019-03-12T19:49:32.073Z,9.60
2019-03-12T19:52:01.102Z,9.50
2019-03-12T19:54:29.928Z,9.50
2019-03-12T19:56:58.713Z,9.50
2019-03-12T19:59:28.035Z,9.50
2019-03-12T20:01:59.302Z,9.50
2019-03-12T20:04:28.704Z,9.50
2019-03-12T20:06:57.989Z,9.60
2019-03-12T20:09:48.877Z,9.70
2019-03-12T20:13:17.338Z,9.70
2019-03-12T20:16:26.019Z,9.70
2019-03-12T20:19:42.903Z,9.70
2019-03-12T20:22:57.478Z,9.60
2019-03-12T20:26:01.455Z,9.70
2019-03-12T20:29:06.340Z,9.70
2019-03-12T20:32:31.887Z,9.70
2019-03-12T20:35:36.578Z,9.70
2019-03-12T20:38:41.660Z,9.60
2019-03-12T20:41:46.869Z,9.70
2019-03-12T20:45:06.322Z,9.70
2019-03-12T20:48:27.457Z,9.70
2019-03-12T20:51:46.721Z,9.80
2019-03-12T20:54:52.729Z,9.80
2019-03-12T20:58:05.015Z,9.70
2019-03-12T21:01:29.317Z,9.80
2019-03-12T21:04:45.586Z,9.90
2019-03-12T21:07:51.433Z,9.80
2019-03-12T21:11:09.975Z,9.80
2019-03-12T21:14:19.227Z,9.80
2019-03-12T21:17:09.550Z,9.90
2019-03-12T21:20:15.581Z,9.70
2019-03-12T21:23:12.259Z,9.70
2019-03-12T21:26:40.653Z,9.70
2019-03-12T21:29:47.479Z,9.90
2019-03-12T21:32:17.704Z,9.90
2019-03-12T21:34:47.041Z,10.10
2019-03-12T21:37:16.410Z,10.10
2019-03-12T21:39:55.285Z,10.10
2019-03-12T21:42:16.463Z,10.00
2019-03-12T21:44:45.301Z,10.10
2019-03-12T21:47:14.224Z,10.10
2019-03-12T21:49:43.205Z,10.10
2019-03-12T21:52:12.163Z,10.20
2019-03-12T21:54:41.806Z,10.20
2019-03-12T21:57:10.912Z,10.20
2019-03-12T21:59:39.687Z,10.10
2019-03-12T22:02:08.812Z,10.20
2019-03-12T22:04:37.930Z,10.20
2019-03-12T22:07:06.828Z,10.20
2019-03-12T22:09:35.618Z,10.20
2019-03-12T22:12:04.538Z,10.20
2019-03-12T22:14:33.314Z,10.20
2019-03-12T22:17:03.387Z,10.30
2019-03-12T22:19:32.560Z,10.20
2019-03-12T22:22:19.567Z,10.20
2019-03-12T22:24:48.525Z,10.20
2019-03-12T22:27:17.393Z,10.20
2019-03-12T22:29:46.197Z,10.30
2019-03-12T22:32:15.162Z,10.30
2019-03-12T22:34:44.208Z,10.30
2019-03-12T22:37:13.326Z,10.40
2019-03-12T22:39:42.539Z,10.40
2019-03-12T22:42:11.669Z,10.50
2019-03-12T22:44:40.776Z,10.40
2019-03-12T22:47:09.645Z,10.30
2019-03-12T22:49:38.496Z,10.20
2019-03-12T22:52:07.689Z,10.20
2019-03-12T22:54:36.732Z,10.10
2019-03-12T22:57:05.876Z,10.10
2019-03-12T22:59:34.651Z,10.20
2019-03-12T23:02:03.478Z,10.20
2019-03-12T23:04:32.270Z,10.10
2019-03-12T23:07:01.443Z,10.00
2019-03-12T23:09:30.264Z,10.00
2019-03-12T23:11:59.116Z,10.10
2019-03-12T23:14:28.432Z,10.20
2019-03-12T23:16:57.288Z,10.20
2019-03-12T23:19:26.058Z,10.10
2019-03-12T23:21:55.266Z,10.10
2019-03-12T23:24:24.089Z,10.10
2019-03-12T23:26:52.903Z,10.20
2019-03-12T23:29:21.981Z,10.30
2019-03-12T23:31:51.087Z,10.30
2019-03-12T23:34:20.156Z,10.40
2019-03-12T23:36:48.988Z,10.40
2019-03-12T23:39:18.156Z,10.40
2019-03-12T23:41:47.410Z,10.50
2019-03-12T23:44:16.256Z,10.40
2019-03-12T23:46:45.108Z,10.50
2019-03-12T23:49:13.895Z,10.60
2019-03-12T23:51:42.818Z,10.60
2019-03-12T23:54:11.898Z,10.60
2019-03-12T23:56:41.287Z,10.50
2019-03-12T23:59:10.075Z,10.50
